Time;durP1;ratioP1;P1;durP2;ratioP2;P2;SDS_P1;SDS_P2;PMS_P1;PMS_P2;Temp;Humidity;BMP_temperature;BMP_pressure;BME280_temperature;BME280_humidity;BME280_pressure;Samples;Min_cycle;Max_cycle;Signal;HPM_P1;HPM_P2
2022/11/06 00:00:37;;;;;;;7.38;4.82;;;10.20;99.90;;;;;;5014224;28;20045;-62
2022/11/06 00:03:05;;;;;;;8.45;3.92;;;10.20;99.90;;;;;;5030207;28;20099;-63
2022/11/06 00:08:26;;;;;;;7.95;4.47;;;10.10;99.90;;;;;;5031532;28;20041;-63
2022/11/06 00:10:53;;;;;;;8.95;4.93;;;10.10;99.90;;;;;;5031177;28;20148;-63
2022/11/06 00:13:20;;;;;;;8.32;4.90;;;10.00;99.90;;;;;;5030311;28;20053;-62
2022/11/06 00:15:47;;;;;;;9.52;5.18;;;9.90;99.90;;;;;;5016230;28;20107;-63
2022/11/06 00:18:15;;;;;;;11.52;5.47;;;9.80;99.90;;;;;;5017142;28;20061;-63
2022/11/06 00:20:42;;;;;;;14.98;5.65;;;9.80;99.90;;;;;;5033774;28;20505;-63
2022/11/06 00:23:08;;;;;;;7.65;4.68;;;9.70;99.90;;;;;;5035316;28;20095;-63
2022/11/06 00:25:39;;;;;;;8.82;5.60;;;9.60;99.90;;;;;;5017424;28;20049;-64
2022/11/06 00:28:06;;;;;;;9.25;5.35;;;9.60;99.90;;;;;;5035842;28;20046;-63
2022/11/06 00:30:32;;;;;;;13.55;6.28;;;9.50;99.90;;;;;;5016327;28;20057;-64
2022/11/06 00:32:59;;;;;;;11.80;6.63;;;9.50;99.90;;;;;;5016900;28;20091;-63
2022/11/06 00:35:28;;;;;;;20.63;6.22;;;9.40;99.90;;;;;;5016857;28;20060;-64
2022/11/06 00:37:55;;;;;;;11.05;6.22;;;9.40;99.90;;;;;;5034619;28;20095;-64
2022/11/06 00:40:22;;;;;;;9.32;6.47;;;9.40;99.90;;;;;;5017190;28;20049;-64
2022/11/06 00:42:52;;;;;;;12.98;6.40;;;9.40;99.90;;;;;;5035227;28;20103;-63
2022/11/06 00:45:19;;;;;;;12.20;6.85;;;9.30;99.90;;;;;;5014649;28;20053;-63
2022/11/06 00:47:46;;;;;;;12.95;7.25;;;9.30;99.90;;;;;;5035113;28;20057;-63
2022/11/06 00:50:13;;;;;;;11.35;7.07;;;9.20;99.90;;;;;;5016573;28;20107;-63
2022/11/06 00:52:41;;;;;;;12.05;6.75;;;9.30;99.90;;;;;;5016996;28;20088;-62
2022/11/06 00:55:08;;;;;;;11.43;6.20;;;9.20;99.90;;;;;;5033458;28;20045;-63
2022/11/06 00:57:35;;;;;;;14.20;8.27;;;9.20;99.90;;;;;;5016457;28;20054;-63
2022/11/06 01:00:02;;;;;;;14.32;7.90;;;9.20;99.90;;;;;;5034321;28;20042;-63
2022/11/06 01:02:29;;;;;;;11.40;8.00;;;9.20;99.90;;;;;;5034941;28;20057;-63
2022/11/06 01:04:56;;;;;;;11.48;7.22;;;9.20;99.90;;;;;;5034628;28;20107;-63
2022/11/06 01:07:23;;;;;;;10.93;7.07;;;9.20;99.90;;;;;;5034696;28;20460;-63
2022/11/06 01:09:51;;;;;;;11.32;7.28;;;9.20;99.90;;;;;;5017138;28;20051;-63
2022/11/06 01:12:18;;;;;;;13.23;8.23;;;9.20;99.90;;;;;;5034338;28;20049;-63
2022/11/06 01:14:45;;;;;;;10.63;7.35;;;9.10;99.90;;;;;;5016909;28;20139;-63
2022/11/06 01:17:13;;;;;;;12.10;7.88;;;9.20;99.90;;;;;;5016322;28;20562;-62
2022/11/06 01:19:40;;;;;;;18.13;9.18;;;9.20;99.90;;;;;;5016159;28;20089;-63
2022/11/06 01:22:07;;;;;;;15.18;7.78;;;9.20;99.90;;;;;;5016516;28;20493;-64
2022/11/06 01:24:34;;;;;;;12.30;8.50;;;9.20;99.90;;;;;;5034938;28;20069;-63
2022/11/06 01:27:02;;;;;;;18.92;9.32;;;9.10;99.90;;;;;;5032969;28;20060;-64
2022/11/06 01:29:29;;;;;;;13.60;8.73;;;9.10;99.90;;;;;;5015903;28;20088;-63
2022/11/06 01:31:56;;;;;;;13.57;9.18;;;9.10;99.90;;;;;;5034662;28;20436;-63
2022/11/06 01:34:23;;;;;;;12.63;8.50;;;9.10;99.90;;;;;;5015925;28;20046;-64
2022/11/06 01:36:50;;;;;;;16.73;8.30;;;9.10;99.90;;;;;;5016645;28;20053;-64
2022/11/06 01:39:17;;;;;;;15.27;8.68;;;9.10;99.90;;;;;;5034336;28;20083;-63
2022/11/06 01:41:46;;;;;;;16.02;8.45;;;9.10;99.90;;;;;;5033623;28;20045;-63
2022/11/06 01:44:50;;;;;;;14.07;9.18;;;9.10;99.90;;;;;;5034426;28;20045;-63
2022/11/06 01:47:23;;;;;;;15.18;8.80;;;9.10;99.90;;;;;;5033705;28;20051;-63
2022/11/06 01:49:51;;;;;;;18.38;9.10;;;9.10;99.90;;;;;;5033236;28;20041;-62
2022/11/06 01:52:20;;;;;;;10.30;8.07;;;9.00;99.90;;;;;;5016724;28;20049;-63
2022/11/06 01:54:51;;;;;;;15.68;8.98;;;9.00;99.90;;;;;;5015908;28;20049;-63
2022/11/06 01:57:18;;;;;;;;;;;9.00;99.90;;;;;;5016501;28;20133;-64
2022/11/06 01:59:45;;;;;;;15.18;8.82;;;9.00;99.90;;;;;;5033795;28;19921;-63
2022/11/06 02:02:16;;;;;;;18.27;8.80;;;9.00;99.90;;;;;;5033399;28;20099;-64
2022/11/06 02:04:47;;;;;;;16.90;9.68;;;9.00;99.90;;;;;;5015302;28;20045;-63
2022/11/06 02:07:14;;;;;;;;;;;9.00;99.90;;;;;;5032461;28;20092;-63
2022/11/06 02:09:41;;;;;;;13.25;8.77;;;9.00;99.90;;;;;;5015056;28;19979;-63
2022/11/06 02:12:18;;;;;;;14.15;9.60;;;9.00;99.90;;;;;;5033455;28;20459;-62
2022/11/06 02:14:56;;;;;;;13.43;8.75;;;9.00;99.90;;;;;;5033653;28;20125;-63
2022/11/06 02:17:34;;;;;;;13.95;9.23;;;9.00;99.90;;;;;;5015375;28;20053;-63
2022/11/06 02:20:10;;;;;;;14.07;9.40;;;9.00;99.90;;;;;;5032420;28;20061;-63
2022/11/06 02:22:55;;;;;;;16.77;10.00;;;9.00;99.90;;;;;;5033072;28;20493;-63
2022/11/06 02:25:32;;;;;;;14.48;8.30;;;9.00;99.90;;;;;;5031230;28;20405;-62
2022/11/06 02:28:07;;;;;;;12.73;8.95;;;9.00;99.90;;;;;;5032249;28;20430;-63
2022/11/06 02:30:39;;;;;;;19.65;10.48;;;9.00;99.90;;;;;;5030876;28;20099;-63
2022/11/06 02:33:10;;;;;;;18.60;9.65;;;9.00;99.90;;;;;;5032206;28;20041;-62
2022/11/06 02:35:43;;;;;;;12.55;8.80;;;9.00;99.90;;;;;;5032839;28;20448;-63
2022/11/06 02:38:13;;;;;;;13.63;8.68;;;9.10;99.90;;;;;;5014226;28;20100;-63
2022/11/06 02:40:44;;;;;;;11.45;8.30;;;9.00;99.90;;;;;;5032818;28;20037;-63
2022/11/06 02:43:15;;;;;;;12.93;9.35;;;9.00;99.90;;;;;;5032474;28;20526;-63
2022/11/06 02:45:47;;;;;;;11.32;9.20;;;9.10;99.90;;;;;;5031087;28;20080;-63
2022/11/06 02:48:18;;;;;;;12.85;8.45;;;9.10;99.90;;;;;;5033170;28;20045;-63
2022/11/06 02:50:47;;;;;;;12.65;8.82;;;9.10;99.90;;;;;;5031394;28;20445;-63
2022/11/06 02:53:16;;;;;;;12.93;9.17;;;9.10;99.90;;;;;;5015325;28;20346;-63
2022/11/06 02:55:48;;;;;;;14.13;8.32;;;9.10;99.90;;;;;;5013113;28;20092;-64
2022/11/06 02:58:20;;;;;;;13.10;8.95;;;9.10;99.90;;;;;;5032432;28;20103;-63
2022/11/06 03:00:51;;;;;;;16.17;9.82;;;9.20;99.90;;;;;;5014220;28;20046;-63
2022/11/06 03:03:24;;;;;;;13.35;9.25;;;9.20;99.90;;;;;;5032825;28;20091;-62
2022/11/06 03:05:57;;;;;;;12.88;9.07;;;9.20;99.90;;;;;;5014409;28;20107;-63
2022/11/06 03:08:31;;;;;;;15.93;9.23;;;9.20;99.90;;;;;;5015021;28;20049;-62
2022/11/06 03:11:04;;;;;;;12.52;8.90;;;9.20;99.90;;;;;;5014649;28;20076;-63
2022/11/06 03:13:43;;;;;;;10.98;8.43;;;9.10;99.90;;;;;;5032237;28;20042;-63
2022/11/06 03:16:23;;;;;;;15.23;9.32;;;9.20;99.90;;;;;;5011291;28;20057;-63
2022/11/06 03:18:56;;;;;;;12.37;7.93;;;9.20;99.90;;;;;;5014007;28;20057;-64
2022/11/06 03:21:29;;;;;;;16.83;8.85;;;9.20;99.90;;;;;;5014582;28;20049;-62
2022/11/06 03:24:01;;;;;;;13.20;8.02;;;9.30;99.90;;;;;;5014555;28;20131;-64
2022/11/06 03:26:35;;;;;;;12.65;8.57;;;9.20;99.90;;;;;;5029805;28;20116;-63
2022/11/06 03:29:10;;;;;;;11.95;8.55;;;9.20;99.90;;;;;;5014446;28;20049;-63
2022/11/06 03:31:40;;;;;;;11.40;8.60;;;9.20;99.90;;;;;;5032421;28;20056;-63
2022/11/06 03:34:11;;;;;;;13.50;8.98;;;9.20;99.90;;;;;;5013647;28;20489;-63
2022/11/06 03:36:42;;;;;;;13.68;8.00;;;9.20;99.90;;;;;;5014209;28;20498;-63
2022/11/06 03:39:15;;;;;;;14.07;8.25;;;9.30;99.90;;;;;;5012440;28;20083;-63
2022/11/06 03:41:47;;;;;;;14.85;8.57;;;9.30;99.90;;;;;;5031816;28;20045;-63
2022/11/06 03:44:20;;;;;;;12.48;8.20;;;9.30;99.90;;;;;;5031132;28;20077;-63
2022/11/06 03:46:50;;;;;;;11.43;7.68;;;9.30;99.90;;;;;;5013397;28;20480;-62
2022/11/06 03:49:22;;;;;;;13.75;8.18;;;9.30;99.90;;;;;;5013664;28;20489;-63
2022/11/06 03:51:53;;;;;;;15.25;8.05;;;9.30;99.90;;;;;;5032062;28;20046;-63
2022/11/06 03:54:23;;;;;;;17.30;8.57;;;9.30;99.90;;;;;;5029943;28;20378;-63
2022/11/06 03:56:56;;;;;;;12.18;8.15;;;9.30;99.90;;;;;;5031785;28;20053;-62
2022/11/06 03:59:29;;;;;;;11.63;7.80;;;9.30;99.90;;;;;;5031755;28;20410;-62
2022/11/06 04:01:58;;;;;;;13.27;8.43;;;9.40;99.90;;;;;;5013510;28;20107;-64
2022/11/06 04:04:30;;;;;;;11.77;8.18;;;9.40;99.90;;;;;;5014004;28;20050;-62
2022/11/06 04:07:02;;;;;;;13.27;8.25;;;9.40;99.90;;;;;;5014413;28;20057;-63
2022/11/06 04:15:12;;;;;;;15.07;8.65;;;9.40;99.90;;;;;;5029613;28;20045;-62
2022/11/06 04:17:40;;;;;;;9.95;7.65;;;9.40;99.90;;;;;;5012643;28;20057;-64
2022/11/06 04:21:20;;;;;;;13.00;7.90;;;9.40;99.90;;;;;;5031063;28;20508;-64
2022/11/06 04:23:03;;;;;;;11.38;7.30;;;9.40;99.90;;;;;;5013309;28;20408;-62
2022/11/06 04:28:33;;;;;;;11.23;8.02;;;9.40;99.90;;;;;;5031119;28;20042;-62
2022/11/06 04:31:07;;;;;;;13.30;8.93;;;9.40;99.90;;;;;;5013780;28;20050;-63
2022/11/06 04:33:40;;;;;;;13.07;8.18;;;9.40;99.90;;;;;;5013889;28;20046;-63
2022/11/06 04:36:17;;;;;;;13.05;7.88;;;9.40;99.90;;;;;;5031234;28;20064;-63
2022/11/06 04:38:51;;;;;;;14.95;8.05;;;9.40;99.90;;;;;;5013221;28;20050;-63
2022/11/06 04:41:33;;;;;;;11.88;7.70;;;9.40;99.90;;;;;;5013695;28;20042;-63
2022/11/06 04:44:05;;;;;;;13.48;8.65;;;9.40;99.90;;;;;;5012114;28;20045;-64
2022/11/06 04:46:37;;;;;;;14.27;7.88;;;9.40;99.90;;;;;;5011494;28;20056;-63
2022/11/06 04:49:06;;;;;;;10.60;7.97;;;9.40;99.90;;;;;;5011327;28;20091;-63
2022/11/06 04:51:37;;;;;;;11.27;7.60;;;9.50;99.90;;;;;;5030762;28;20057;-63
2022/11/06 04:54:07;;;;;;;14.73;8.52;;;9.50;99.90;;;;;;5013721;28;20054;-63
2022/11/06 04:56:36;;;;;;;10.90;7.57;;;9.50;99.90;;;;;;5030263;28;20444;-63
2022/11/06 04:59:04;;;;;;;12.10;7.45;;;9.50;99.90;;;;;;5013358;28;20820;-63
2022/11/06 05:01:31;;;;;;;13.38;7.60;;;9.50;99.90;;;;;;5033673;28;20377;-62
2022/11/06 05:03:59;;;;;;;11.10;7.70;;;9.50;99.90;;;;;;5034515;28;20493;-62
2022/11/06 05:06:26;;;;;;;12.25;7.68;;;9.50;99.90;;;;;;5034675;28;20041;-63
2022/11/06 05:08:53;;;;;;;11.73;6.93;;;9.50;99.90;;;;;;5032719;28;20045;-63
2022/11/06 05:11:19;;;;;;;13.35;8.02;;;9.50;99.90;;;;;;5034435;28;20049;-63
2022/11/06 05:13:46;;;;;;;10.65;6.90;;;9.50;99.90;;;;;;5032111;28;20045;-62
2022/11/06 05:16:13;;;;;;;12.80;7.43;;;9.50;99.90;;;;;;5015718;28;20517;-64
2022/11/06 05:18:40;;;;;;;11.93;7.35;;;9.50;99.90;;;;;;5034386;28;20464;-62
2022/11/06 05:23:53;;;;;;;14.82;7.60;;;9.50;99.90;;;;;;5032931;28;20045;-63
2022/11/06 05:26:20;;;;;;;10.15;7.03;;;9.50;99.90;;;;;;5033653;28;21042;-63
2022/11/06 05:28:47;;;;;;;14.93;6.85;;;9.50;99.90;;;;;;5034261;28;20508;-63
2022/11/06 05:31:14;;;;;;;11.98;7.32;;;9.50;99.90;;;;;;5016970;28;20045;-62
2022/11/06 05:33:41;;;;;;;22.70;8.00;;;9.50;99.90;;;;;;5033617;28;20092;-64
2022/11/06 05:36:09;;;;;;;16.17;7.13;;;9.40;99.90;;;;;;5034476;28;20064;-63
2022/11/06 05:38:36;;;;;;;13.55;6.85;;;9.50;99.90;;;;;;5034645;28;20045;-64
2022/11/06 05:41:03;;;;;;;11.30;6.13;;;9.50;99.90;;;;;;5033140;28;20056;-63
2022/11/06 05:43:30;;;;;;;11.00;7.13;;;9.50;99.90;;;;;;5016586;28;20053;-64
2022/11/06 05:45:59;;;;;;;10.65;6.82;;;9.50;99.90;;;;;;5013263;28;20485;-62
2022/11/06 05:48:26;;;;;;;10.00;6.78;;;9.40;99.90;;;;;;5014916;28;20050;-63
2022/11/06 05:50:53;;;;;;;13.57;6.85;;;9.40;99.90;;;;;;5015968;28;20045;-63
2022/11/06 05:53:21;;;;;;;9.48;6.35;;;9.50;99.90;;;;;;5033624;28;20049;-63
2022/11/06 05:55:48;;;;;;;7.90;6.45;;;9.40;99.90;;;;;;5033978;28;20103;-63
2022/11/06 05:58:15;;;;;;;9.75;6.70;;;9.40;99.90;;;;;;5016284;28;20096;-62
2022/11/06 06:00:41;;;;;;;11.60;6.32;;;9.40;99.90;;;;;;5033274;28;20448;-64
2022/11/06 06:03:09;;;;;;;10.13;6.30;;;9.50;99.90;;;;;;5033580;28;20045;-64
2022/11/06 06:05:36;;;;;;;10.52;6.10;;;9.50;99.90;;;;;;5015878;28;20103;-63
2022/11/06 06:08:03;;;;;;;12.43;6.35;;;9.40;99.90;;;;;;5031253;28;20052;-63
2022/11/06 06:10:31;;;;;;;10.10;6.05;;;9.50;99.90;;;;;;5015819;28;20386;-64
2022/11/06 06:12:58;;;;;;;10.90;5.53;;;9.50;99.90;;;;;;5031335;28;20049;-63
2022/11/06 06:15:25;;;;;;;11.18;6.13;;;9.40;99.90;;;;;;5030359;28;20060;-64
2022/11/06 06:17:51;;;;;;;9.93;5.75;;;9.40;99.90;;;;;;5015490;28;20103;-64
2022/11/06 06:20:18;;;;;;;11.80;6.13;;;9.40;99.90;;;;;;5015653;28;20065;-64
2022/11/06 06:22:53;;;;;;;8.07;5.68;;;9.40;99.90;;;;;;5032858;28;20072;-64
2022/11/06 06:25:20;;;;;;;9.65;5.65;;;9.40;99.90;;;;;;5015945;28;20095;-63
2022/11/06 06:27:48;;;;;;;13.98;5.45;;;9.40;99.90;;;;;;5033282;28;20551;-64
2022/11/06 06:30:15;;;;;;;10.55;5.32;;;9.30;99.90;;;;;;5032309;28;20111;-64
2022/11/06 06:32:42;;;;;;;9.82;5.50;;;9.30;99.90;;;;;;5012026;28;20454;-63
2022/11/06 06:35:09;;;;;;;13.68;5.68;;;9.40;99.90;;;;;;5013744;28;20448;-63
2022/11/06 06:37:36;;;;;;;10.68;6.22;;;9.30;99.90;;;;;;5012661;28;20477;-63
2022/11/06 06:40:05;;;;;;;10.25;5.57;;;9.40;99.90;;;;;;5014203;28;20145;-63
2022/11/06 06:42:32;;;;;;;12.82;6.38;;;9.30;99.90;;;;;;5030509;28;20107;-63
2022/11/06 06:45:00;;;;;;;9.80;5.93;;;9.40;99.90;;;;;;5013986;28;20053;-63
2022/11/06 06:47:27;;;;;;;10.85;5.40;;;9.40;99.90;;;;;;5033157;28;20191;-62
2022/11/06 06:49:54;;;;;;;13.05;5.40;;;9.40;99.90;;;;;;5032269;28;20057;-63
2022/11/06 06:52:20;;;;;;;6.65;5.30;;;9.40;99.90;;;;;;5015080;28;20053;-62
2022/11/06 06:54:47;;;;;;;11.10;5.35;;;9.40;99.90;;;;;;5014850;28;20057;-63
2022/11/06 06:57:14;;;;;;;12.70;5.43;;;9.40;99.90;;;;;;5032215;28;20046;-63
2022/11/06 06:59:41;;;;;;;6.93;5.10;;;9.40;99.90;;;;;;5014270;28;20049;-63
2022/11/06 07:02:10;;;;;;;11.07;5.03;;;9.40;99.90;;;;;;5032692;28;20091;-63
2022/11/06 07:04:36;;;;;;;14.20;5.40;;;9.40;99.90;;;;;;5013849;28;20049;-63
2022/11/06 07:07:03;;;;;;;8.68;5.18;;;9.40;99.90;;;;;;5015283;28;20049;-62
2022/11/06 07:09:31;;;;;;;10.05;4.60;;;9.40;99.90;;;;;;5014519;28;20096;-63
2022/11/06 07:11:58;;;;;;;11.35;5.20;;;9.40;99.90;;;;;;5031844;28;20072;-64
2022/11/06 07:14:25;;;;;;;11.73;5.28;;;9.40;99.90;;;;;;5011076;28;20115;-64
2022/11/06 07:16:52;;;;;;;11.65;4.53;;;9.40;99.90;;;;;;5029599;28;20066;-66
2022/11/06 07:19:20;;;;;;;9.85;4.03;;;9.50;99.90;;;;;;5014775;28;20056;-63
2022/11/06 07:21:50;;;;;;;8.50;4.40;;;9.50;99.90;;;;;;5006182;28;20045;-64
2022/11/06 07:24:19;;;;;;;9.43;4.30;;;9.50;99.90;;;;;;5025538;28;20073;-64
2022/11/06 07:26:45;;;;;;;9.55;4.47;;;9.50;99.90;;;;;;5029461;28;20045;-63
2022/11/06 07:29:13;;;;;;;9.27;3.90;;;9.60;99.90;;;;;;5025736;28;20049;-63
2022/11/06 07:31:40;;;;;;;10.75;4.00;;;9.60;99.90;;;;;;5007967;28;20053;-64
2022/11/06 07:34:07;;;;;;;10.30;4.72;;;9.60;99.90;;;;;;5005792;28;20096;-63
2022/11/06 07:36:36;;;;;;;7.88;3.83;;;9.70;99.90;;;;;;5012527;28;20058;-63
2022/11/06 07:39:03;;;;;;;6.03;3.75;;;9.70;99.90;;;;;;5025353;28;20103;-63
2022/11/06 07:41:30;;;;;;;11.10;4.78;;;9.80;99.90;;;;;;5024415;28;20054;-63
2022/11/06 07:43:57;;;;;;;9.85;4.63;;;9.80;99.90;;;;;;5012463;28;20135;-64
2022/11/06 07:46:23;;;;;;;10.57;5.03;;;9.70;99.90;;;;;;5008140;28;20049;-64
2022/11/06 07:48:50;;;;;;;7.43;4.03;;;9.70;99.90;;;;;;5010902;28;20049;-64
2022/11/06 07:51:17;;;;;;;9.35;4.40;;;9.70;99.90;;;;;;5011451;28;20049;-64
2022/11/06 07:53:45;;;;;;;8.05;4.55;;;9.60;99.90;;;;;;5026160;28;20409;-65
2022/11/06 07:56:12;;;;;;;8.32;4.07;;;9.60;99.90;;;;;;5023021;28;20413;-64
2022/11/06 07:58:39;;;;;;;10.00;3.83;;;9.60;99.90;;;;;;5005847;28;20456;-64
2022/11/06 08:01:06;;;;;;;10.18;4.22;;;9.60;99.90;;;;;;5026860;28;20037;-64
2022/11/06 08:03:33;;;;;;;7.22;4.20;;;9.60;99.90;;;;;;5011865;28;20198;-64
2022/11/06 08:06:03;;;;;;;16.42;4.32;;;9.60;99.90;;;;;;5008279;28;20104;-64
2022/11/06 08:08:31;;;;;;;11.95;4.22;;;9.60;99.90;;;;;;5007736;28;20075;-64
2022/11/06 08:11:02;;;;;;;9.70;3.72;;;9.60;99.90;;;;;;5025258;28;20052;-63
2022/11/06 08:13:29;;;;;;;16.17;4.60;;;9.60;99.90;;;;;;5025252;28;20103;-63
2022/11/06 08:15:56;;;;;;;10.50;4.28;;;9.60;99.90;;;;;;5023604;28;20041;-64
2022/11/06 08:18:23;;;;;;;8.75;4.25;;;9.60;99.90;;;;;;5010864;28;20053;-64
2022/11/06 08:20:52;;;;;;;6.75;3.63;;;9.60;99.90;;;;;;5009097;28;20049;-64
2022/11/06 08:23:19;;;;;;;7.53;3.55;;;9.60;99.90;;;;;;5009949;28;20060;-64
2022/11/06 08:25:46;;;;;;;10.43;4.32;;;9.60;99.90;;;;;;5007957;28;20133;-64
2022/11/06 08:28:14;;;;;;;7.07;3.72;;;9.70;99.90;;;;;;5007617;28;20045;-64
2022/11/06 08:30:41;;;;;;;7.85;3.40;;;9.70;99.90;;;;;;5024933;28;20095;-62
2022/11/06 08:33:08;;;;;;;9.73;3.92;;;9.80;99.90;;;;;;5009004;28;20548;-63
2022/11/06 08:35:36;;;;;;;7.57;3.67;;;9.80;99.90;;;;;;5024165;28;20129;-64
2022/11/06 08:38:03;;;;;;;12.32;3.67;;;9.80;99.90;;;;;;5029987;28;20042;-62
2022/11/06 08:40:30;;;;;;;10.27;4.30;;;9.90;99.90;;;;;;5010090;28;20054;-64
2022/11/06 08:43:00;;;;;;;8.52;3.67;;;9.90;99.90;;;;;;5025502;28;20054;-64
2022/11/06 08:45:28;;;;;;;8.23;3.83;;;10.00;99.90;;;;;;5027153;28;20045;-64
2022/11/06 08:47:55;;;;;;;9.27;3.47;;;10.00;99.90;;;;;;5012684;28;20049;-63
2022/11/06 08:50:22;;;;;;;6.80;3.58;;;10.10;99.90;;;;;;5010209;28;20049;-63
2022/11/06 08:52:49;;;;;;;9.98;3.78;;;10.10;99.90;;;;;;5009945;28;20303;-63
2022/11/06 08:55:16;;;;;;;8.57;3.17;;;10.10;99.90;;;;;;5030517;28;20041;-66
2022/11/06 08:57:43;;;;;;;7.72;3.58;;;10.10;99.90;;;;;;5029416;28;20049;-64
2022/11/06 09:00:11;;;;;;;7.05;3.03;;;10.20;99.90;;;;;;5015137;28;20057;-64
2022/11/06 09:02:39;;;;;;;6.65;3.60;;;10.20;99.90;;;;;;5011610;28;20081;-64
2022/11/06 09:05:07;;;;;;;6.82;3.65;;;10.30;99.90;;;;;;5027922;28;20100;-63
2022/11/06 09:07:34;;;;;;;6.13;3.20;;;10.30;99.90;;;;;;5027973;28;20141;-64
2022/11/06 09:10:01;;;;;;;12.02;3.97;;;10.40;99.90;;;;;;5028990;28;20405;-63
2022/11/06 09:12:28;;;;;;;8.52;3.20;;;10.60;99.90;;;;;;5011367;28;20440;-64
2022/11/06 09:14:54;;;;;;;6.32;2.97;;;10.60;99.90;;;;;;5025060;28;20050;-63
2022/11/06 09:17:22;;;;;;;6.28;3.15;;;10.80;99.90;;;;;;5013905;28;20127;-64
2022/11/06 09:19:51;;;;;;;13.63;3.22;;;10.90;99.90;;;;;;5027715;28;20041;-64
2022/11/06 09:22:18;;;;;;;7.32;3.45;;;10.90;99.90;;;;;;5012379;28;20100;-64
2022/11/06 09:24:44;;;;;;;6.20;3.40;;;10.90;99.90;;;;;;5012331;28;20053;-64
2022/11/06 09:27:12;;;;;;;15.43;3.67;;;10.90;99.90;;;;;;5026781;28;20100;-65
2022/11/06 09:29:39;;;;;;;8.85;3.47;;;11.00;99.90;;;;;;5011896;28;20057;-63
2022/11/06 09:32:06;;;;;;;9.85;2.97;;;11.00;99.90;;;;;;5012915;28;20049;-65
2022/11/06 09:34:33;;;;;;;6.20;3.22;;;11.00;99.90;;;;;;5030297;28;20555;-64
2022/11/06 09:37:03;;;;;;;8.77;3.08;;;11.00;99.90;;;;;;5008619;28;20046;-64
2022/11/06 09:39:30;;;;;;;12.73;3.50;;;11.00;99.90;;;;;;5010760;28;20054;-64
2022/11/06 09:41:59;;;;;;;8.10;3.28;;;11.00;99.90;;;;;;5026648;28;20076;-64
2022/11/06 09:44:40;;;;;;;10.85;3.03;;;11.00;99.90;;;;;;5026834;28;20093;-63
2022/11/06 09:47:13;;;;;;;6.63;3.10;;;11.00;99.90;;;;;;5028037;28;20056;-64
2022/11/06 09:49:46;;;;;;;5.18;2.90;;;11.10;99.90;;;;;;5028095;28;20045;-63
2022/11/06 09:52:20;;;;;;;6.43;2.38;;;11.10;99.90;;;;;;5007807;28;20084;-64
2022/11/06 09:54:49;;;;;;;6.60;3.03;;;11.10;99.90;;;;;;5027545;28;20057;-64
2022/11/06 09:57:21;;;;;;;7.35;2.70;;;11.10;99.90;;;;;;5009255;28;20512;-63
2022/11/06 09:59:48;;;;;;;10.65;3.20;;;11.10;99.90;;;;;;5012295;28;20041;-64
2022/11/06 10:02:25;;;;;;;9.15;3.78;;;11.10;99.90;;;;;;5027503;28;20045;-63
2022/11/06 10:04:59;;;;;;;9.25;2.97;;;11.10;99.90;;;;;;5027675;28;20398;-63
2022/11/06 10:07:29;;;;;;;6.95;3.42;;;11.10;99.90;;;;;;5026893;28;20099;-64
2022/11/06 10:09:57;;;;;;;8.90;3.40;;;11.10;99.90;;;;;;5009465;28;20049;-64
2022/11/06 10:12:33;;;;;;;10.43;3.22;;;11.10;99.90;;;;;;5025002;28;20057;-63
2022/11/06 10:15:08;;;;;;;9.27;2.70;;;11.10;99.90;;;;;;5006308;28;20057;-65
2022/11/06 10:17:45;;;;;;;5.57;2.83;;;11.10;99.90;;;;;;5030997;28;20152;-64
2022/11/06 10:20:18;;;;;;;6.80;2.70;;;11.20;99.90;;;;;;5008242;28;20053;-62
2022/11/06 10:22:56;;;;;;;4.85;2.88;;;11.20;99.90;;;;;;5009009;28;20064;-64
2022/11/06 10:25:34;;;;;;;5.93;2.50;;;11.20;99.90;;;;;;5026728;28;20476;-63
2022/11/06 10:28:03;;;;;;;5.70;2.10;;;11.30;99.90;;;;;;5041790;28;20061;-63
2022/11/06 10:30:40;;;;;;;5.45;2.50;;;11.30;99.90;;;;;;5011503;28;20049;-63
2022/11/06 10:33:31;;;;;;;6.20;3.03;;;11.30;99.90;;;;;;5026152;28;20489;-64
2022/11/06 10:36:00;;;;;;;;;;;11.40;99.90;;;;;;5026029;28;20041;-64
2022/11/06 10:38:33;;;;;;;9.82;2.83;;;11.40;99.90;;;;;;5028199;28;20395;-64
2022/11/06 10:41:02;;;;;;;7.30;2.55;;;11.40;99.90;;;;;;5026659;28;20099;-64
2022/11/06 10:43:34;;;;;;;6.43;2.80;;;11.50;99.90;;;;;;5008002;28;20054;-64
2022/11/06 10:46:09;;;;;;;8.70;3.00;;;11.50;99.90;;;;;;5008006;28;20140;-64
2022/11/06 10:48:42;;;;;;;6.20;2.70;;;11.60;99.90;;;;;;5008654;28;20049;-64
2022/11/06 10:51:25;;;;;;;5.03;2.50;;;11.70;99.90;;;;;;5013118;28;20053;-63
2022/11/06 10:54:03;;;;;;;4.95;2.22;;;11.70;99.90;;;;;;5025265;28;20053;-65
2022/11/06 10:56:48;;;;;;;9.75;3.15;;;11.70;99.90;;;;;;5025350;28;20049;-65
2022/11/06 10:59:16;;;;;;;5.82;3.00;;;11.80;99.90;;;;;;5008900;28;20467;-64
2022/11/06 11:01:43;;;;;;;5.15;2.80;;;11.80;99.90;;;;;;5026246;28;20042;-65
2022/11/06 11:04:10;;;;;;;6.65;2.75;;;11.80;99.90;;;;;;5024371;28;20418;-65
2022/11/06 11:06:39;;;;;;;7.85;2.40;;;11.90;99.90;;;;;;5007955;28;20065;-63
2022/11/06 11:09:27;;;;;;;6.65;2.83;;;11.90;99.90;;;;;;5008542;28;20056;-65
2022/11/06 11:11:54;;;;;;;7.40;2.35;;;11.90;99.90;;;;;;5024366;28;20053;-65
2022/11/06 11:14:24;;;;;;;9.32;2.33;;;11.80;99.90;;;;;;5026569;28;20053;-63
2022/11/06 11:16:51;;;;;;;5.18;2.50;;;11.90;99.90;;;;;;5028460;28;20061;-63
2022/11/06 11:19:27;;;;;;;7.80;2.63;;;11.90;99.90;;;;;;5027707;28;20057;-65
2022/11/06 11:21:56;;;;;;;7.65;3.38;;;11.80;99.90;;;;;;5006279;28;20046;-64
2022/11/06 11:24:25;;;;;;;5.88;2.70;;;11.70;99.90;;;;;;5028090;28;20061;-64
2022/11/06 11:26:54;;;;;;;6.50;3.33;;;11.60;99.90;;;;;;5009922;28;20065;-64
2022/11/06 11:29:24;;;;;;;8.52;2.85;;;11.50;99.90;;;;;;5008813;28;20106;-64
2022/11/06 11:31:52;;;;;;;;;;;11.40;99.90;;;;;;5009028;28;20140;-64
2022/11/06 11:34:22;;;;;;;7.80;2.95;;;11.30;99.90;;;;;;5009437;28;19988;-63
2022/11/06 11:36:56;;;;;;;7.35;2.60;;;11.30;99.90;;;;;;5010091;28;20520;-65
2022/11/06 11:39:30;;;;;;;7.55;2.90;;;11.30;99.90;;;;;;5025191;28;20048;-63
2022/11/06 11:42:26;;;;;;;5.25;2.67;;;11.20;99.90;;;;;;5009471;28;20485;-64
2022/11/06 11:45:17;;;;;;;8.57;2.85;;;11.20;99.90;;;;;;5005659;28;20045;-64
2022/11/06 11:47:46;;;;;;;5.97;2.63;;;11.10;99.90;;;;;;5024522;28;20100;-65
2022/11/06 11:50:28;;;;;;;10.48;2.95;;;11.10;99.90;;;;;;5007383;28;20041;-65
2022/11/06 11:52:59;;;;;;;7.43;2.85;;;11.10;99.90;;;;;;5005691;28;20375;-64
2022/11/06 11:55:29;;;;;;;9.75;3.50;;;11.10;99.90;;;;;;5028194;28;20041;-64
2022/11/06 11:57:59;;;;;;;4.30;2.33;;;11.10;99.90;;;;;;5011730;28;20460;-64
2022/11/06 12:00:27;;;;;;;8.77;3.43;;;11.10;99.90;;;;;;5027264;28;20049;-64
2022/11/06 12:02:58;;;;;;;6.72;3.05;;;11.10;99.90;;;;;;5025931;28;20308;-64
2022/11/06 12:05:30;;;;;;;8.75;2.80;;;11.20;99.90;;;;;;5007938;28;20095;-64
2022/11/06 12:07:58;;;;;;;6.47;2.70;;;11.20;99.90;;;;;;5004968;28;20049;-63
2022/11/06 12:10:30;;;;;;;7.75;2.75;;;11.20;99.90;;;;;;5024301;28;20045;-64
2022/11/06 12:12:59;;;;;;;9.98;2.72;;;11.30;99.90;;;;;;5035630;28;20103;-64
2022/11/06 12:15:29;;;;;;;6.63;2.63;;;11.30;99.90;;;;;;5015776;28;20381;-64
2022/11/06 12:18:00;;;;;;;6.03;2.58;;;11.40;99.90;;;;;;5013753;28;20050;-65
2022/11/06 12:20:35;;;;;;;9.15;2.72;;;11.40;99.90;;;;;;5010823;28;20563;-64
2022/11/06 12:23:04;;;;;;;4.78;2.10;;;11.50;99.90;;;;;;5030865;28;20050;-64
2022/11/06 12:25:36;;;;;;;4.25;2.45;;;11.50;99.90;;;;;;5014097;28;20456;-64
2022/11/06 12:28:07;;;;;;;6.90;2.95;;;11.50;99.90;;;;;;5013739;28;20372;-64
2022/11/06 12:30:35;;;;;;;8.15;2.78;;;11.60;99.90;;;;;;5014801;28;20111;-63
2022/11/06 12:33:10;;;;;;;6.22;2.30;;;11.70;99.90;;;;;;5030740;28;20390;-63
2022/11/06 12:35:40;;;;;;;6.38;2.13;;;11.90;99.90;;;;;;5011247;28;20056;-63
2022/11/06 12:38:15;;;;;;;8.55;2.85;;;12.10;99.90;;;;;;5013966;28;20045;-65
2022/11/06 12:40:49;;;;;;;3.65;1.88;;;12.30;99.90;;;;;;5033253;28;20041;-65
2022/11/06 12:43:22;;;;;;;6.13;2.60;;;12.60;99.90;;;;;;5029819;28;20127;-64
2022/11/06 12:46:24;;;;;;;6.68;2.08;;;12.80;99.90;;;;;;5017126;28;20068;-65
2022/11/06 12:49:22;;;;;;;6.68;2.03;;;13.00;99.90;;;;;;5030580;28;20128;-64
2022/11/06 12:52:02;;;;;;;5.15;2.63;;;12.50;99.90;;;;;;5015459;28;20497;-64
2022/11/06 12:54:46;;;;;;;8.15;2.13;;;12.80;99.90;;;;;;5013929;28;20114;-64
2022/11/06 12:57:26;;;;;;;8.55;2.30;;;12.70;99.90;;;;;;5030063;28;20061;-64
2022/11/06 13:00:05;;;;;;;7.45;2.55;;;12.60;99.90;;;;;;5016460;28;20057;-64
2022/11/06 13:02:51;;;;;;;7.13;3.65;;;12.50;99.90;;;;;;5011775;28;20533;-64
2022/11/06 13:05:23;;;;;;;4.47;2.03;;;12.40;99.90;;;;;;5014459;28;20049;-63
2022/11/06 13:08:05;;;;;;;6.35;2.47;;;12.30;99.90;;;;;;5032753;28;20041;-64
2022/11/06 13:10:42;;;;;;;4.93;1.98;;;12.30;99.90;;;;;;5015908;28;20103;-63
2022/11/06 13:13:24;;;;;;;6.75;2.40;;;12.20;99.90;;;;;;5013025;28;20045;-64
2022/11/06 13:15:56;;;;;;;5.00;2.10;;;12.20;99.90;;;;;;5017877;28;20053;-64
2022/11/06 13:18:28;;;;;;;7.20;2.45;;;12.20;99.90;;;;;;5013143;28;20099;-63